Time;durP1;ratioP1;P1;durP2;ratioP2;P2;SDS_P1;SDS_P2;PMS_P1;PMS_P2;Temp;Humidity;BMP_temperature;BMP_pressure;BME280_temperature;BME280_humidity;BME280_pressure;Samples;Min_cycle;Max_cycle;Signal;HPM_P1;HPM_P2
2022/05/28 00:00:59;;;;;;;4.87;1.70;;;;;;;;;;4994726;28;20228;-74
2022/05/28 00:03:25;;;;;;;7.97;2.13;;;;;;;;;;5036283;28;20801;-76
2022/05/28 00:05:53;;;;;;;8.53;2.27;;;;;;;;;;5002169;28;20220;-73
2022/05/28 00:08:21;;;;;;;8.53;2.53;;;;;;;;;;5013232;28;20217;-74
2022/05/28 00:10:47;;;;;;;8.27;2.43;;;;;;;;;;5017012;28;20228;-74
2022/05/28 00:13:12;;;;;;;7.77;2.53;;;;;;;;;;5014251;28;20757;-74
2022/05/28 00:15:41;;;;;;;10.27;2.87;;;;;;;;;;4999628;28;20224;-75
2022/05/28 00:18:07;;;;;;;9.57;2.73;;;;;;;;;;4982235;28;20757;-75
2022/05/28 00:20:33;;;;;;;7.73;2.10;;;;;;;;;;4993137;28;20750;-75
2022/05/28 00:22:58;;;;;;;5.97;2.47;;;;;;;;;;5005088;28;20248;-75
2022/05/28 00:25:26;;;;;;;6.30;2.03;;;;;;;;;;4965870;28;20315;-75
2022/05/28 00:27:53;;;;;;;8.43;2.73;;;;;;;;;;4971566;28;20744;-75
2022/05/28 00:30:21;;;;;;;8.20;2.23;;;;;;;;;;5016813;28;20220;-75
2022/05/28 00:32:47;;;;;;;7.30;2.07;;;;;;;;;;5002052;28;20276;-75
2022/05/28 00:35:15;;;;;;;8.57;2.70;;;;;;;;;;5008194;28;20285;-74
2022/05/28 00:37:44;;;;;;;5.47;1.90;;;;;;;;;;5002109;28;20231;-74
2022/05/28 00:40:13;;;;;;;8.83;1.90;;;;;;;;;;4990710;28;20279;-74
2022/05/28 00:42:39;;;;;;;7.03;1.90;;;;;;;;;;5035341;28;20229;-75
2022/05/28 00:45:08;;;;;;;10.60;2.33;;;;;;;;;;5001165;28;20238;-75
2022/05/28 00:47:34;;;;;;;11.33;2.40;;;;;;;;;;5002935;28;20227;-75
2022/05/28 00:50:05;;;;;;;7.93;2.17;;;;;;;;;;5005677;28;20220;-74
2022/05/28 00:52:31;;;;;;;7.33;2.00;;;;;;;;;;4994185;28;20216;-75
2022/05/28 00:54:56;;;;;;;7.67;2.20;;;;;;;;;;4992180;28;20220;-74
2022/05/28 00:57:28;;;;;;;7.73;2.03;;;;;;;;;;4990836;28;20237;-75
2022/05/28 00:59:59;;;;;;;4.40;1.57;;;;;;;;;;4983348;28;20311;-75
2022/05/28 01:02:53;;;;;;;6.83;2.20;;;;;;;;;;5036270;28;20246;-75
2022/05/28 01:05:37;;;;;;;7.23;2.03;;;;;;;;;;5035713;28;20224;-75
2022/05/28 01:08:29;;;;;;;13.00;1.90;;;;;;;;;;5000390;28;20729;-75
2022/05/28 01:11:08;;;;;;;4.90;1.53;;;;;;;;;;5022419;28;20243;-74
2022/05/28 01:13:43;;;;;;;7.97;2.20;;;;;;;;;;4970448;28;20220;-75
2022/05/28 01:16:20;;;;;;;6.33;1.90;;;;;;;;;;4989289;28;20227;-75
2022/05/28 01:18:50;;;;;;;7.63;1.93;;;;;;;;;;5001511;28;20655;-74
2022/05/28 01:21:45;;;;;;;8.30;2.17;;;;;;;;;;5000101;28;20231;-75
2022/05/28 01:24:17;;;;;;;7.57;1.80;;;;;;;;;;5001291;28;20223;-74
2022/05/28 01:26:55;;;;;;;5.90;1.77;;;;;;;;;;5013345;28;20227;-74
2022/05/28 01:29:20;;;;;;;8.13;1.70;;;;;;;;;;5017201;28;20726;-74
2022/05/28 01:31:46;;;;;;;9.10;1.93;;;;;;;;;;5016827;28;20234;-73
2022/05/28 01:34:31;;;;;;;6.93;1.80;;;;;;;;;;5004203;28;20228;-76
2022/05/28 01:37:01;;;;;;;9.93;2.00;;;;;;;;;;5027073;28;20234;-75
2022/05/28 01:39:29;;;;;;;10.10;1.77;;;;;;;;;;4987313;28;20296;-75
2022/05/28 01:41:55;;;;;;;9.10;2.80;;;;;;;;;;5008323;28;20680;-75
2022/05/28 01:44:21;;;;;;;8.13;1.87;;;;;;;;;;4979889;28;20230;-76
2022/05/28 01:46:49;;;;;;;10.03;2.40;;;;;;;;;;4978357;28;20228;-75
2022/05/28 01:49:16;;;;;;;6.37;1.70;;;;;;;;;;4978887;28;20239;-75
2022/05/28 01:51:47;;;;;;;8.63;1.87;;;;;;;;;;5015468;28;20211;-74
2022/05/28 01:54:14;;;;;;;6.33;1.63;;;;;;;;;;4996802;28;20219;-74
2022/05/28 01:56:45;;;;;;;9.47;2.13;;;;;;;;;;5005338;28;20214;-74
2022/05/28 01:59:15;;;;;;;5.07;1.60;;;;;;;;;;5000683;28;20655;-75
2022/05/28 02:01:43;;;;;;;7.23;1.97;;;;;;;;;;5003057;28;20223;-74
2022/05/28 02:04:09;;;;;;;8.33;2.00;;;;;;;;;;4998019;28;20716;-74
2022/05/28 02:06:35;;;;;;;4.73;1.33;;;;;;;;;;5005630;28;20380;-75
2022/05/28 02:09:02;;;;;;;6.30;1.80;;;;;;;;;;4986226;28;20225;-75
2022/05/28 02:11:32;;;;;;;7.30;1.93;;;;;;;;;;5029231;28;20227;-75
2022/05/28 02:14:19;;;;;;;4.50;1.77;;;;;;;;;;5005135;28;20224;-75
2022/05/28 02:17:19;;;;;;;5.07;1.37;;;;;;;;;;5041066;28;20242;-76
2022/05/28 02:19:54;;;;;;;5.40;1.60;;;;;;;;;;5029864;28;20956;-73
2022/05/28 02:22:58;;;;;;;6.87;2.00;;;;;;;;;;5010752;28;20623;-73
2022/05/28 02:25:36;;;;;;;8.03;1.50;;;;;;;;;;5022297;28;20302;-74
2022/05/28 02:28:03;;;;;;;7.53;2.10;;;;;;;;;;5022242;28;20239;-74
2022/05/28 02:30:29;;;;;;;5.73;1.90;;;;;;;;;;5000552;28;20234;-74
2022/05/28 02:33:06;;;;;;;6.30;1.77;;;;;;;;;;5020516;28;20262;-74
2022/05/28 02:35:32;;;;;;;4.40;1.40;;;;;;;;;;5043411;28;20231;-73
2022/05/28 02:37:58;;;;;;;5.83;1.60;;;;;;;;;;5033966;28;20219;-74
2022/05/28 02:40:26;;;;;;;3.60;1.40;;;;;;;;;;4975286;28;20217;-73
2022/05/28 02:42:55;;;;;;;4.13;1.40;;;;;;;;;;5024241;28;20782;-74
2022/05/28 02:45:20;;;;;;;4.80;1.20;;;;;;;;;;5033278;28;20212;-73
2022/05/28 02:47:46;;;;;;;6.00;1.50;;;;;;;;;;5044497;28;20865;-73
2022/05/28 02:50:14;;;;;;;5.23;1.63;;;;;;;;;;5012909;28;20224;-75
2022/05/28 02:52:42;;;;;;;4.03;1.70;;;;;;;;;;5027287;28;20731;-73
2022/05/28 02:55:07;;;;;;;8.03;1.90;;;;;;;;;;5011162;28;20228;-75
2022/05/28 02:57:33;;;;;;;5.13;2.07;;;;;;;;;;5020601;28;20290;-74
2022/05/28 03:00:00;;;;;;;4.93;2.20;;;;;;;;;;5011981;28;20234;-74
2022/05/28 03:02:28;;;;;;;6.30;2.27;;;;;;;;;;5008267;28;20712;-74
2022/05/28 03:04:56;;;;;;;4.43;2.30;;;;;;;;;;5006316;28;20230;-74
2022/05/28 03:07:22;;;;;;;7.67;2.53;;;;;;;;;;5024755;28;20580;-74
2022/05/28 03:09:47;;;;;;;6.73;2.40;;;;;;;;;;5023434;28;20231;-74
2022/05/28 03:12:17;;;;;;;9.70;2.50;;;;;;;;;;5007191;28;21036;-75
2022/05/28 03:14:42;;;;;;;10.03;2.40;;;;;;;;;;5004732;28;20224;-75
2022/05/28 03:17:08;;;;;;;10.73;2.60;;;;;;;;;;5005569;28;20259;-75
2022/05/28 03:19:36;;;;;;;12.13;3.03;;;;;;;;;;4996946;28;20247;-74
2022/05/28 03:22:01;;;;;;;6.33;2.70;;;;;;;;;;4975043;28;20243;-74
2022/05/28 03:24:29;;;;;;;8.53;2.87;;;;;;;;;;5004616;28;20219;-75
2022/05/28 03:26:59;;;;;;;8.83;2.83;;;;;;;;;;4993178;28;20219;-74
2022/05/28 03:29:25;;;;;;;11.73;2.93;;;;;;;;;;4989550;28;20607;-75
2022/05/28 03:31:53;;;;;;;8.37;2.20;;;;;;;;;;4990577;28;20594;-75
2022/05/28 03:34:18;;;;;;;10.53;3.17;;;;;;;;;;4988499;28;20229;-74
2022/05/28 03:36:46;;;;;;;12.10;2.93;;;;;;;;;;4994428;28;20286;-75
2022/05/28 03:39:12;;;;;;;10.93;2.80;;;;;;;;;;4994656;28;20234;-74
2022/05/28 03:41:37;;;;;;;10.80;2.73;;;;;;;;;;5005594;28;20231;-73
2022/05/28 03:44:03;;;;;;;14.93;2.83;;;;;;;;;;5003785;28;20227;-75
2022/05/28 03:46:30;;;;;;;9.87;2.70;;;;;;;;;;5007980;28;20709;-74
2022/05/28 03:48:59;;;;;;;15.77;3.27;;;;;;;;;;4978018;28;20213;-74
2022/05/28 03:51:25;;;;;;;7.57;2.50;;;;;;;;;;4993698;28;20221;-75
2022/05/28 03:53:50;;;;;;;14.07;3.13;;;;;;;;;;5009770;28;20232;-74
2022/05/28 03:56:19;;;;;;;11.70;3.13;;;;;;;;;;5005215;28;20227;-74
2022/05/28 03:58:44;;;;;;;15.07;3.23;;;;;;;;;;4990694;28;20235;-74
2022/05/28 04:01:10;;;;;;;15.50;3.03;;;;;;;;;;5030767;28;20224;-74
2022/05/28 04:03:38;;;;;;;9.30;2.40;;;;;;;;;;4970764;28;20221;-74
2022/05/28 04:06:03;;;;;;;11.90;2.90;;;;;;;;;;5002735;28;20588;-75
2022/05/28 04:08:29;;;;;;;15.20;2.70;;;;;;;;;;4999266;28;20224;-74
2022/05/28 04:10:56;;;;;;;12.83;3.20;;;;;;;;;;5014129;28;20234;-74
2022/05/28 04:13:22;;;;;;;11.97;2.50;;;;;;;;;;5017093;28;20227;-73
2022/05/28 04:15:48;;;;;;;12.97;3.00;;;;;;;;;;5021992;28;20339;-73
2022/05/28 04:18:13;;;;;;;11.53;2.73;;;;;;;;;;5016280;28;20278;-73
2022/05/28 04:20:41;;;;;;;9.90;2.67;;;;;;;;;;4987538;28;20224;-75
2022/05/28 04:23:06;;;;;;;8.83;2.70;;;;;;;;;;4996955;28;20693;-74
2022/05/28 04:25:34;;;;;;;8.63;2.30;;;;;;;;;;4998516;28;20219;-73
2022/05/28 04:28:00;;;;;;;10.13;2.57;;;;;;;;;;5024622;28;20224;-74
2022/05/28 04:30:25;;;;;;;9.23;2.80;;;;;;;;;;5004778;28;20226;-74
2022/05/28 04:32:53;;;;;;;12.40;3.10;;;;;;;;;;5019957;28;20307;-74
2022/05/28 04:35:19;;;;;;;12.07;2.47;;;;;;;;;;5020877;28;20302;-74
2022/05/28 04:37:44;;;;;;;10.30;2.93;;;;;;;;;;4991904;28;20327;-74
2022/05/28 04:40:10;;;;;;;10.33;2.13;;;;;;;;;;5037770;28;20303;-74
2022/05/28 04:42:38;;;;;;;8.43;2.50;;;;;;;;;;5020582;28;20227;-74
2022/05/28 04:45:04;;;;;;;8.47;2.60;;;;;;;;;;5004562;28;20224;-75
2022/05/28 04:47:35;;;;;;;7.73;2.37;;;;;;;;;;4997053;28;20228;-74
2022/05/28 04:50:00;;;;;;;8.13;2.53;;;;;;;;;;4995638;28;20577;-74
2022/05/28 04:52:25;;;;;;;9.93;2.73;;;;;;;;;;4986268;28;20226;-75
2022/05/28 04:54:51;;;;;;;8.60;2.47;;;;;;;;;;5006815;28;20312;-75
2022/05/28 04:57:16;;;;;;;6.07;2.53;;;;;;;;;;5002869;28;20242;-73
2022/05/28 04:59:42;;;;;;;6.57;2.20;;;;;;;;;;4995785;28;20218;-75
2022/05/28 05:02:10;;;;;;;9.37;2.40;;;;;;;;;;5003266;28;20823;-74
2022/05/28 05:04:38;;;;;;;11.70;2.60;;;;;;;;;;4981717;28;20230;-74
2022/05/28 05:07:05;;;;;;;10.47;2.90;;;;;;;;;;5003436;28;20281;-73
2022/05/28 05:09:33;;;;;;;8.33;2.20;;;;;;;;;;5005548;28;20306;-75
2022/05/28 05:11:59;;;;;;;11.40;2.67;;;;;;;;;;5019576;28;20223;-74
2022/05/28 05:14:24;;;;;;;13.07;2.73;;;;;;;;;;5009975;28;20688;-75
2022/05/28 05:16:52;;;;;;;7.37;2.30;;;;;;;;;;5021780;28;20247;-74
2022/05/28 05:19:18;;;;;;;12.07;2.60;;;;;;;;;;5001546;28;20275;-75
2022/05/28 05:21:44;;;;;;;11.43;3.13;;;;;;;;;;5005860;28;20232;-74
2022/05/28 05:24:14;;;;;;;10.13;2.50;;;;;;;;;;4988012;28;20227;-74
2022/05/28 05:26:39;;;;;;;11.53;2.90;;;;;;;;;;5013942;28;20272;-74
2022/05/28 05:29:07;;;;;;;9.67;2.50;;;;;;;;;;4997621;28;20232;-76
2022/05/28 05:31:33;;;;;;;12.90;3.60;;;;;;;;;;5014094;28;20278;-74
2022/05/28 05:33:58;;;;;;;11.33;3.00;;;;;;;;;;4989446;28;20215;-75
2022/05/28 05:36:24;;;;;;;11.90;2.80;;;;;;;;;;5004293;28;20216;-74
2022/05/28 05:38:54;;;;;;;12.70;3.13;;;;;;;;;;5016541;28;20224;-75
2022/05/28 05:41:20;;;;;;;12.97;3.20;;;;;;;;;;4995390;28;20667;-75
2022/05/28 05:43:45;;;;;;;7.33;2.43;;;;;;;;;;5010392;28;20233;-75
2022/05/28 05:46:13;;;;;;;10.70;3.00;;;;;;;;;;4982568;28;20227;-75
2022/05/28 05:48:39;;;;;;;10.77;2.90;;;;;;;;;;4989129;28;20259;-74
2022/05/28 05:51:09;;;;;;;11.40;2.90;;;;;;;;;;5003617;28;20226;-75
2022/05/28 05:53:37;;;;;;;9.23;2.47;;;;;;;;;;5019949;28;20692;-74
2022/05/28 05:56:03;;;;;;;8.30;2.60;;;;;;;;;;5025874;28;20216;-75
2022/05/28 05:58:28;;;;;;;12.67;2.83;;;;;;;;;;4979770;28;20898;-74
2022/05/28 06:00:54;;;;;;;7.73;2.83;;;;;;;;;;5009627;28;20607;-74
2022/05/28 06:03:22;;;;;;;10.73;2.97;;;;;;;;;;4997992;28;20575;-74
2022/05/28 06:05:48;;;;;;;9.57;2.57;;;;;;;;;;4981898;28;20212;-73
2022/05/28 06:08:16;;;;;;;10.30;2.77;;;;;;;;;;4997967;28;20594;-74
2022/05/28 06:10:43;;;;;;;10.60;2.97;;;;;;;;;;4992654;28;20647;-73
2022/05/28 06:13:10;;;;;;;11.33;3.00;;;;;;;;;;4982246;28;20637;-73
2022/05/28 06:15:36;;;;;;;9.20;2.80;;;;;;;;;;5004784;28;20236;-73
2022/05/28 06:18:03;;;;;;;11.80;3.27;;;;;;;;;;4995321;28;20223;-75
2022/05/28 06:20:30;;;;;;;10.33;2.73;;;;;;;;;;5002222;28;20240;-74
2022/05/28 06:22:56;;;;;;;7.73;2.90;;;;;;;;;;4987214;28;20212;-73
2022/05/28 06:25:21;;;;;;;17.00;3.37;;;;;;;;;;4997037;28;20212;-75
2022/05/28 06:27:49;;;;;;;12.53;3.40;;;;;;;;;;5023622;28;20222;-74
2022/05/28 06:30:15;;;;;;;15.10;3.50;;;;;;;;;;5018363;28;20250;-74
2022/05/28 06:32:43;;;;;;;13.73;3.10;;;;;;;;;;5032464;28;20313;-74
2022/05/28 06:35:11;;;;;;;15.17;3.63;;;;;;;;;;4996047;28;20314;-74
2022/05/28 06:37:39;;;;;;;12.63;3.13;;;;;;;;;;5005083;28;20234;-73
2022/05/28 06:40:05;;;;;;;11.60;3.00;;;;;;;;;;4977886;28;20228;-74
2022/05/28 06:42:30;;;;;;;10.90;3.40;;;;;;;;;;4988698;28;20239;-76
2022/05/28 06:44:56;;;;;;;13.10;3.00;;;;;;;;;;5022719;28;20248;-74
2022/05/28 06:47:22;;;;;;;11.50;2.90;;;;;;;;;;5036649;28;20233;-74
2022/05/28 06:51:01;;;;;;;8.13;2.80;;;;;;;;;;5031922;28;20285;-74
2022/05/28 06:52:36;;;;;;;9.73;2.40;;;;;;;;;;5018628;28;20239;-74
2022/05/28 06:55:03;;;;;;;8.30;2.47;;;;;;;;;;5017791;28;20706;-73
2022/05/28 06:57:31;;;;;;;9.67;2.60;;;;;;;;;;5003595;28;20690;-74
2022/05/28 07:00:00;;;;;;;8.77;2.57;;;;;;;;;;5018718;28;20247;-73
2022/05/28 07:02:27;;;;;;;8.23;2.17;;;;;;;;;;4985027;28;20228;-73
2022/05/28 07:04:53;;;;;;;11.10;3.13;;;;;;;;;;5006096;28;20231;-73
2022/05/28 07:07:20;;;;;;;10.47;2.57;;;;;;;;;;5017402;28;20220;-74
2022/05/28 07:09:48;;;;;;;10.17;2.77;;;;;;;;;;5003916;28;20236;-77
2022/05/28 07:12:16;;;;;;;10.67;2.50;;;;;;;;;;5021032;28;20211;-74
2022/05/28 07:14:43;;;;;;;8.03;2.50;;;;;;;;;;5005394;28;20223;-74
2022/05/28 07:17:12;;;;;;;8.57;2.97;;;;;;;;;;5001965;28;20223;-74
2022/05/28 07:19:41;;;;;;;13.03;3.23;;;;;;;;;;5014395;28;20255;-74
2022/05/28 07:22:13;;;;;;;6.17;2.47;;;;;;;;;;5011568;28;20603;-74
2022/05/28 07:24:41;;;;;;;10.13;2.70;;;;;;;;;;5025574;28;20676;-74
2022/05/28 07:27:06;;;;;;;9.50;2.77;;;;;;;;;;5033517;28;20274;-74
2022/05/28 07:29:32;;;;;;;10.80;2.73;;;;;;;;;;5004462;28;20726;-73
2022/05/28 07:31:59;;;;;;;8.07;2.67;;;;;;;;;;5034399;28;20918;-74
2022/05/28 07:34:25;;;;;;;11.77;3.53;;;;;;;;;;5012714;28;20231;-75
2022/05/28 07:36:53;;;;;;;10.73;2.83;;;;;;;;;;5004174;28;20262;-75
2022/05/28 07:39:19;;;;;;;11.80;3.10;;;;;;;;;;5030814;28;20295;-75
2022/05/28 07:41:48;;;;;;;13.57;3.07;;;;;;;;;;5024959;28;20239;-75
2022/05/28 07:44:15;;;;;;;10.67;2.97;;;;;;;;;;4986022;28;20585;-75
2022/05/28 07:46:43;;;;;;;12.70;2.50;;;;;;;;;;4997479;28;20220;-75
2022/05/28 07:49:11;;;;;;;9.57;2.63;;;;;;;;;;4994029;28;20261;-74
2022/05/28 07:51:37;;;;;;;11.27;2.77;;;;;;;;;;5029563;28;20224;-74
2022/05/28 07:54:04;;;;;;;11.03;2.53;;;;;;;;;;4988676;28;20719;-75
2022/05/28 07:56:35;;;;;;;9.20;3.03;;;;;;;;;;4997433;28;20217;-75
2022/05/28 07:59:00;;;;;;;10.13;2.53;;;;;;;;;;5023273;28;20331;-75
2022/05/28 08:01:27;;;;;;;6.80;2.20;;;;;;;;;;4998650;28;20318;-75
2022/05/28 08:03:53;;;;;;;8.53;2.67;;;;;;;;;;5000841;28;20243;-71
2022/05/28 08:06:21;;;;;;;6.70;2.70;;;;;;;;;;5023105;28;20684;-72
2022/05/28 08:08:51;;;;;;;8.73;2.40;;;;;;;;;;5004512;28;20328;-73
2022/05/28 08:11:17;;;;;;;7.97;2.20;;;;;;;;;;4987906;28;20219;-72
2022/05/28 08:13:43;;;;;;;5.77;2.20;;;;;;;;;;4973753;28;20236;-71
2022/05/28 08:16:13;;;;;;;8.53;2.63;;;;;;;;;;4972267;28;20291;-71
2022/05/28 08:18:41;;;;;;;9.63;2.20;;;;;;;;;;4995780;28;20369;-71
2022/05/28 08:23:56;;;;;;;8.63;2.67;;;;;;;;;;5000439;28;20769;-73
2022/05/28 08:26:27;;;;;;;8.57;2.53;;;;;;;;;;5013967;28;20714;-72
2022/05/28 08:28:53;;;;;;;11.70;2.80;;;;;;;;;;4984263;28;20220;-73
2022/05/28 08:31:19;;;;;;;7.87;2.93;;;;;;;;;;5000022;28;20216;-73
2022/05/28 08:33:46;;;;;;;9.57;3.20;;;;;;;;;;5012444;28;20230;-74
2022/05/28 08:36:12;;;;;;;10.00;3.10;;;;;;;;;;5008495;28;20232;-72
2022/05/28 08:38:40;;;;;;;8.53;2.83;;;;;;;;;;4987927;28;20736;-74
2022/05/28 08:41:12;;;;;;;7.07;2.80;;;;;;;;;;5014920;28;20239;-73
2022/05/28 08:43:52;;;;;;;11.70;2.93;;;;;;;;;;4999855;28;20833;-73
2022/05/28 08:46:20;;;;;;;11.67;2.80;;;;;;;;;;5037642;28;20296;-73
2022/05/28 08:49:05;;;;;;;10.47;3.27;;;;;;;;;;4974692;28;20594;-72
2022/05/28 08:51:39;;;;;;;13.13;3.00;;;;;;;;;;4997775;28;20227;-71
2022/05/28 08:54:09;;;;;;;11.47;3.17;;;;;;;;;;5007970;28;20251;-73
2022/05/28 08:56:37;;;;;;;13.00;3.80;;;;;;;;;;5017287;28;20235;-73
2022/05/28 08:59:10;;;;;;;11.13;3.33;;;;;;;;;;4994319;28;20971;-73
2022/05/28 09:01:42;;;;;;;12.50;3.70;;;;;;;;;;5001641;28;20245;-73
2022/05/28 09:04:16;;;;;;;13.37;3.20;;;;;;;;;;5006312;28;20264;-73
2022/05/28 09:06:49;;;;;;;11.37;3.60;;;;;;;;;;5017532;28;20816;-73
2022/05/28 09:09:15;;;;;;;10.43;3.23;;;;;;;;;;5011788;28;20249;-72
2022/05/28 09:11:55;;;;;;;10.73;3.47;;;;;;;;;;5009433;28;20227;-73
2022/05/28 09:14:27;;;;;;;14.33;3.73;;;;;;;;;;4982494;28;20216;-72
2022/05/28 09:16:54;;;;;;;10.97;3.67;;;;;;;;;;5017499;28;20220;-73
2022/05/28 09:19:22;;;;;;;9.50;3.37;;;;;;;;;;4998408;28;20208;-73
2022/05/28 09:21:49;;;;;;;9.83;3.03;;;;;;;;;;5006820;28;20655;-72
2022/05/28 09:24:33;;;;;;;9.83;2.80;;;;;;;;;;5020367;28;20246;-71
2022/05/28 09:26:58;;;;;;;9.50;2.93;;;;;;;;;;5020170;28;20242;-73
2022/05/28 09:29:39;;;;;;;11.23;3.13;;;;;;;;;;5024622;28;20220;-74
2022/05/28 09:32:39;;;;;;;6.83;2.80;;;;;;;;;;5018931;28;20265;-72
2022/05/28 09:35:13;;;;;;;10.70;3.00;;;;;;;;;;4989755;28;20740;-74
2022/05/28 09:37:59;;;;;;;9.10;2.73;;;;;;;;;;5019435;28;20224;-72
2022/05/28 09:40:47;;;;;;;10.20;3.10;;;;;;;;;;5035561;28;20273;-73
2022/05/28 09:43:36;;;;;;;10.73;3.70;;;;;;;;;;4996886;28;20231;-73
2022/05/28 09:46:26;;;;;;;10.27;3.50;;;;;;;;;;4996230;28;20653;-73
2022/05/28 09:49:01;;;;;;;10.00;3.47;;;;;;;;;;5035485;28;20227;-72
2022/05/28 09:51:30;;;;;;;11.43;3.67;;;;;;;;;;4974137;28;20560;-74
2022/05/28 09:57:09;;;;;;;11.97;3.30;;;;;;;;;;4970723;28;20222;-72
2022/05/28 09:59:37;;;;;;;13.70;3.80;;;;;;;;;;4992879;28;20224;-72
2022/05/28 10:02:16;;;;;;;11.27;3.20;;;;;;;;;;5012789;28;20335;-73
2022/05/28 10:04:56;;;;;;;12.37;2.90;;;;;;;;;;5004698;28;20239;-73
2022/05/28 10:07:28;;;;;;;10.80;3.07;;;;;;;;;;5004465;28;20226;-74
2022/05/28 10:09:54;;;;;;;10.43;3.40;;;;;;;;;;5008286;28;20216;-73
2022/05/28 10:12:24;;;;;;;7.87;2.70;;;;;;;;;;4998024;28;20223;-73
2022/05/28 10:15:05;;;;;;;9.00;3.20;;;;;;;;;;4991183;28;20221;-73
2022/05/28 10:17:31;;;;;;;10.80;3.17;;;;;;;;;;5023019;28;20234;-73
2022/05/28 10:19:57;;;;;;;11.63;3.07;;;;;;;;;;4996848;28;20215;-73
2022/05/28 10:22:25;;;;;;;9.80;3.00;;;;;;;;;;4997816;28;20288;-72
2022/05/28 10:25:04;;;;;;;12.23;3.70;;;;;;;;;;4993714;28;20705;-76
2022/05/28 10:27:31;;;;;;;9.47;2.63;;;;;;;;;;5004287;28;20230;-73
2022/05/28 10:30:03;;;;;;;13.13;2.70;;;;;;;;;;5018251;28;20308;-74
2022/05/28 10:32:51;;;;;;;9.77;3.10;;;;;;;;;;4982961;28;20227;-72
2022/05/28 10:35:22;;;;;;;8.13;2.67;;;;;;;;;;5016396;28;20223;-73
2022/05/28 10:37:48;;;;;;;5.20;2.20;;;;;;;;;;5035874;28;20646;-72
2022/05/28 10:40:18;;;;;;;6.22;2.20;;;;;;;;;;5023186;28;20250;-74
2022/05/28 10:42:46;;;;;;;8.70;2.30;;;;;;;;;;5017100;28;20588;-72
2022/05/28 10:45:12;;;;;;;6.55;1.90;;;;;;;;;;5021745;28;20265;-72
2022/05/28 10:47:59;;;;;;;7.63;1.80;;;;;;;;;;5004876;28;20307;-72
2022/05/28 10:50:34;;;;;;;8.75;2.13;;;;;;;;;;5012295;28;20694;-73
2022/05/28 10:53:09;;;;;;;7.60;2.03;;;;;;;;;;5035085;28;20594;-74
2022/05/28 10:55:46;;;;;;;6.60;1.75;;;;;;;;;;5015261;28;20216;-73
2022/05/28 10:58:34;;;;;;;4.45;1.63;;;;;;;;;;5027007;28;20571;-74
2022/05/28 11:01:24;;;;;;;4.57;1.77;;;;;;;;;;4977993;28;20229;-73
2022/05/28 11:04:13;;;;;;;7.22;1.75;;;;;;;;;;5006839;28;20716;-74
2022/05/28 11:06:44;;;;;;;4.60;1.80;;;;;;;;;;5001636;28;20255;-73
2022/05/28 11:09:19;;;;;;;5.30;2.15;;;;;;;;;;5020647;28;20242;-74
2022/05/28 11:12:19;;;;;;;6.95;2.00;;;;;;;;;;5038146;28;20732;-74
2022/05/28 11:15:02;;;;;;;8.07;2.40;;;;;;;;;;4994509;28;20217;-73
2022/05/28 11:18:17;;;;;;;6.63;2.10;;;;;;;;;;5029837;28;20227;-73
2022/05/28 11:21:04;;;;;;;7.60;1.90;;;;;;;;;;4989571;28;20232;-73
2022/05/28 11:24:25;;;;;;;7.38;2.20;;;;;;;;;;5037727;28;20220;-73
2022/05/28 11:27:11;;;;;;;5.35;2.20;;;;;;;;;;4922791;29;20235;-75
2022/05/28 11:30:05;;;;;;;8.02;2.05;;;;;;;;;;5013120;28;20219;-75
2022/05/28 11:32:44;;;;;;;5.55;2.05;;;;;;;;;;5008499;28;20833;-74
2022/05/28 11:35:20;;;;;;;5.60;2.13;;;;;;;;;;4996112;28;20212;-75
2022/05/28 11:38:04;;;;;;;6.35;2.22;;;;;;;;;;4975003;28;20274;-74
2022/05/28 11:40:56;;;;;;;7.90;2.45;;;;;;;;;;5002301;28;20287;-75
2022/05/28 11:43:28;;;;;;;6.40;2.20;;;;;;;;;;5006959;28;20323;-75
2022/05/28 11:46:31;;;;;;;11.13;2.58;;;;;;;;;;5003053;28;20228;-76
2022/05/28 11:52:11;;;;;;;7.40;2.20;;;;;;;;;;5036578;28;20211;-76
2022/05/28 11:54:57;;;;;;;8.40;2.20;;;;;;;;;;5012347;28;20224;-73
2022/05/28 11:57:29;;;;;;;5.93;2.13;;;;;;;;;;4975538;28;20280;-75
2022/05/28 11:59:57;;;;;;;7.60;2.17;;;;;;;;;;4985036;28;20222;-75
2022/05/28 12:02:29;;;;;;;6.93;1.95;;;;;;;;;;4968734;28;20301;-76
2022/05/28 12:04:55;;;;;;;8.05;2.40;;;;;;;;;;5004343;28;20235;-74
2022/05/28 12:07:35;;;;;;;9.23;2.38;;;;;;;;;;4989956;28;20208;-74
2022/05/28 12:10:02;;;;;;;6.43;2.25;;;;;;;;;;5019447;28;20349;-74
2022/05/28 12:12:34;;;;;;;7.47;2.03;;;;;;;;;;4981627;28;20331;-74
2022/05/28 12:15:21;;;;;;;6.07;2.15;;;;;;;;;;5012489;28;20603;-74
2022/05/28 12:18:13;;;;;;;10.35;2.22;;;;;;;;;;4998573;28;20211;-73
2022/05/28 12:20:58;;;;;;;8.68;2.17;;;;;;;;;;5026662;28;20238;-74
2022/05/28 12:23:41;;;;;;;9.13;2.45;;;;;;;;;;4985204;28;20216;-73
2022/05/28 12:29:34;;;;;;;8.80;2.70;;;;;;;;;;5007515;28;20325;-74
2022/05/28 12:32:14;;;;;;;10.05;2.28;;;;;;;;;;5000794;28;20236;-76
2022/05/28 12:34:53;;;;;;;9.32;2.40;;;;;;;;;;5032072;28;20687;-75
2022/05/28 12:37:26;;;;;;;10.63;2.93;;;;;;;;;;5017335;28;20592;-72
2022/05/28 12:40:14;;;;;;;7.28;2.40;;;;;;;;;;5004133;28;20593;-72
2022/05/28 12:42:40;;;;;;;8.73;2.45;;;;;;;;;;5032844;28;20266;-73
2022/05/28 12:45:34;;;;;;;10.60;2.63;;;;;;;;;;5014936;28;20247;-74
2022/05/28 12:48:12;;;;;;;7.22;2.65;;;;;;;;;;4996215;28;20609;-73
2022/05/28 12:51:01;;;;;;;8.38;2.95;;;;;;;;;;4985995;28;20698;-73
2022/05/28 12:53:32;;;;;;;11.57;2.50;;;;;;;;;;5010876;28;20250;-74
2022/05/28 12:56:06;;;;;;;11.63;2.70;;;;;;;;;;5013282;28;20220;-73
2022/05/28 12:58:37;;;;;;;8.00;2.50;;;;;;;;;;5020338;28;20239;-73
2022/05/28 13:01:17;;;;;;;8.73;2.17;;;;;;;;;;4991727;28;20228;-73
2022/05/28 13:03:45;;;;;;;10.90;2.67;;;;;;;;;;4998235;28;20270;-74
2022/05/28 13:06:15;;;;;;;9.55;2.40;;;;;;;;;;4991278;28;20282;-74
2022/05/28 13:08:48;;;;;;;7.65;2.22;;;;;;;;;;4974465;28;20923;-75
2022/05/28 13:11:37;;;;;;;10.50;2.57;;;;;;;;;;4993036;28;20228;-74
2022/05/28 13:14:45;;;;;;;6.90;2.10;;;;;;;;;;4997560;28;20253;-73
2022/05/28 13:17:19;;;;;;;6.50;1.95;;;;;;;;;;5002976;28;20223;-75
2022/05/28 13:19:50;;;;;;;5.80;2.20;;;;;;;;;;5022252;28;20242;-73
2022/05/28 13:22:40;;;;;;;7.15;2.30;;;;;;;;;;5017371;28;20232;-74
2022/05/28 13:25:09;;;;;;;5.72;1.90;;;;;;;;;;5013243;28;20235;-74
2022/05/28 13:27:46;;;;;;;6.30;1.90;;;;;;;;;;5008328;28;20223;-73
2022/05/28 13:30:25;;;;;;;6.25;2.00;;;;;;;;;;4982348;28;20232;-73
2022/05/28 13:32:54;;;;;;;6.30;1.70;;;;;;;;;;4999121;28;20223;-73
2022/05/28 13:35:24;;;;;;;5.88;1.83;;;;;;;;;;4997574;28;20286;-73
2022/05/28 13:37:59;;;;;;;7.68;1.95;;;;;;;;;;5012821;28;20254;-74
2022/05/28 13:40:26;;;;;;;8.73;2.00;;;;;;;;;;4979961;28;20227;-74
2022/05/28 13:42:52;;;;;;;5.60;1.80;;;;;;;;;;5015351;28;20223;-74
2022/05/28 13:45:30;;;;;;;7.88;2.25;;;;;;;;;;4998644;28;20219;-74
2022/05/28 13:48:06;;;;;;;4.53;1.80;;;;;;;;;;5033546;28;20597;-75
2022/05/28 13:50:34;;;;;;;8.27;1.80;;;;;;;;;;5010906;28;20615;-73
2022/05/28 13:52:59;;;;;;;5.47;1.90;;;;;;;;;;5018254;28;20592;-73
2022/05/28 13:55:27;;;;;;;6.32;1.85;;;;;;;;;;4995029;28;20227;-74
2022/05/28 13:57:53;;;;;;;8.48;1.80;;;;;;;;;;4970278;28;20227;-74
2022/05/28 14:00:33;;;;;;;6.57;1.80;;;;;;;;;;5022539;28;20733;-74
2022/05/28 14:03:06;;;;;;;4.78;1.52;;;;;;;;;;5000262;28;20232;-74
2022/05/28 14:05:38;;;;;;;4.13;1.60;;;;;;;;;;4991446;28;20219;-73
2022/05/28 14:08:35;;;;;;;7.97;1.70;;;;;;;;;;5015604;28;20228;-73
2022/05/28 14:11:18;;;;;;;4.20;1.40;;;;;;;;;;5023664;28;20227;-74
2022/05/28 14:13:48;;;;;;;4.80;1.60;;;;;;;;;;5000959;28;20238;-72
2022/05/28 14:16:36;;;;;;;5.75;1.20;;;;;;;;;;4974777;28;20234;-74
2022/05/28 14:19:03;;;;;;;5.45;1.98;;;;;;;;;;4997042;28;20291;-74
2022/05/28 14:21:37;;;;;;;5.65;1.50;;;;;;;;;;4999678;28;20241;-75
2022/05/28 14:24:14;;;;;;;4.70;1.67;;;;;;;;;;4995852;28;20222;-76
2022/05/28 14:26:40;;;;;;;4.68;1.70;;;;;;;;;;4997463;28;20339;-73
2022/05/28 14:29:09;;;;;;;7.47;2.35;;;;;;;;;;5000725;28;20220;-74
2022/05/28 14:31:37;;;;;;;5.13;2.03;;;;;;;;;;4995494;28;20247;-73
2022/05/28 14:34:03;;;;;;;8.82;2.10;;;;;;;;;;5000044;28;20469;-74
2022/05/28 14:36:34;;;;;;;5.35;1.83;;;;;;;;;;4986960;28;20644;-74
2022/05/28 14:39:14;;;;;;;5.63;1.80;;;;;;;;;;5022746;28;20306;-74
2022/05/28 14:41:46;;;;;;;4.15;1.63;;;;;;;;;;5019457;28;20236;-74
2022/05/28 14:44:18;;;;;;;5.55;1.50;;;;;;;;;;5019309;28;20298;-74
2022/05/28 14:46:46;;;;;;;5.40;1.73;;;;;;;;;;4988327;28;20753;-73
2022/05/28 14:49:28;;;;;;;6.47;1.52;;;;;;;;;;5001828;28;20586;-74
2022/05/28 14:52:01;;;;;;;4.25;1.63;;;;;;;;;;4998635;28;20740;-74
2022/05/28 14:54:30;;;;;;;4.38;1.50;;;;;;;;;;4997668;28;20217;-74
2022/05/28 14:56:56;;;;;;;5.25;1.70;;;;;;;;;;5023036;28;20218;-75
2022/05/28 14:59:25;;;;;;;5.88;1.40;;;;;;;;;;5023016;28;20311;-74
2022/05/28 15:01:50;;;;;;;3.50;1.42;;;;;;;;;;5005507;28;20225;-75
2022/05/28 15:04:28;;;;;;;7.90;1.70;;;;;;;;;;4970638;28;20216;-73
2022/05/28 15:07:03;;;;;;;5.18;1.48;;;;;;;;;;5007359;28;20692;-72
2022/05/28 15:09:32;;;;;;;7.10;1.83;;;;;;;;;;5000497;28;20226;-73
2022/05/28 15:12:03;;;;;;;3.03;1.30;;;;;;;;;;5034207;28;20224;-74
2022/05/28 15:14:29;;;;;;;4.65;1.40;;;;;;;;;;5019227;28;20285;-74
2022/05/28 15:16:54;;;;;;;6.97;1.92;;;;;;;;;;5022301;28;20211;-74